Weather at Muwaffaq Salti Air Base

Public forecast

Using degrees Celsius for public forecast. Weather courtesy of forecast.io.

Closest aviation weather report (METAR) to Muwaffaq Salti Air Base

Report is more than 6 hours old.

Closest report is Gurayat Domestic Airport, 35.5 nm (65.8 km) SE. Retrieved 2022/09/17 19:00 UTC (17 days ago):

OEGT 171900Z 31006KT CAVOK 29/M01 Q1007 NOSIG

Closest aviation forecast (TAF) to Muwaffaq Salti Air Base

Forecast is more than 12 hours old.

Closest forecast is Gurayat Domestic Airport, 35.5 nm (65.8 km) SE. Retrieved 2022/09/17 12:12 UTC (17 days ago):

TAF OEGT 171100Z 1712/1818 07013KT CAVOK BECMG 1720/1722 34010KT